Time;durP1;ratioP1;P1;durP2;ratioP2;P2;SDS_P1;SDS_P2;PMS_P1;PMS_P2;Temp;Humidity;BMP_temperature;BMP_pressure;BME280_temperature;BME280_humidity;BME280_pressure;Samples;Min_cycle;Max_cycle;Signal;HPM_P1;HPM_P2
2021/04/02 00:01:24;;;;;;;1.40;0.20;;;11.10;78.40;;;;;;5088514;28;20226;-61
2021/04/02 00:03:50;;;;;;;1.50;0.40;;;11.00;79.40;;;;;;5099355;28;20208;-60
2021/04/02 00:06:15;;;;;;;7.27;1.10;;;11.10;79.50;;;;;;5101851;28;20682;-60
2021/04/02 00:08:41;;;;;;;1.47;0.20;;;11.00;79.80;;;;;;5092923;28;20194;-60
2021/04/02 00:11:09;;;;;;;5.43;1.57;;;11.00;79.40;;;;;;5097119;28;20648;-60
2021/04/02 00:13:44;;;;;;;1.50;0.30;;;10.90;79.80;;;;;;5099567;28;20310;-60
2021/04/02 00:16:12;;;;;;;1.60;0.40;;;10.70;80.50;;;;;;5091824;28;20443;-60
2021/04/02 00:18:38;;;;;;;3.00;0.87;;;10.70;81.80;;;;;;5097101;28;20441;-60
2021/04/02 00:21:06;;;;;;;1.50;0.30;;;10.60;82.40;;;;;;5099801;28;20435;-61
2021/04/02 00:23:33;;;;;;;1.93;0.90;;;10.60;82.00;;;;;;5098488;28;20520;-60
2021/04/02 00:25:59;;;;;;;1.60;0.40;;;10.40;82.70;;;;;;5100235;28;20437;-60
2021/04/02 00:28:25;;;;;;;1.50;0.37;;;10.40;83.90;;;;;;5103204;28;20429;-60
2021/04/02 00:30:55;;;;;;;2.30;0.87;;;10.30;84.20;;;;;;5085909;28;20438;-60
2021/04/02 00:33:24;;;;;;;1.57;0.50;;;10.30;85.00;;;;;;5095841;28;20829;-60
2021/04/02 00:35:50;;;;;;;1.93;1.20;;;10.30;85.80;;;;;;5097751;28;20783;-60
2021/04/02 00:38:17;;;;;;;1.40;0.20;;;10.30;85.50;;;;;;5091161;28;20443;-61
2021/04/02 00:40:47;;;;;;;1.60;0.63;;;10.10;87.00;;;;;;5088662;28;20429;-60
2021/04/02 00:43:14;;;;;;;1.87;0.47;;;10.10;87.90;;;;;;5094753;28;20492;-60
2021/04/02 00:45:40;;;;;;;1.47;0.20;;;10.10;88.20;;;;;;5089774;28;20439;-60
2021/04/02 00:48:07;;;;;;;3.00;0.87;;;10.00;88.90;;;;;;5099851;28;20432;-60
2021/04/02 00:50:49;;;;;;;1.50;0.30;;;10.00;90.00;;;;;;5086944;28;20188;-60
2021/04/02 00:53:16;;;;;;;1.70;0.63;;;9.80;91.00;;;;;;5083061;28;20523;-60
2021/04/02 00:55:42;;;;;;;2.73;1.03;;;9.80;91.50;;;;;;5100632;28;20445;-60
2021/04/02 00:58:11;;;;;;;1.43;0.20;;;9.80;91.90;;;;;;5095270;28;20876;-61
2021/04/02 01:00:36;;;;;;;1.80;0.30;;;9.70;92.10;;;;;;5089919;28;20438;-60
2021/04/02 01:03:03;;;;;;;1.43;0.20;;;9.50;92.50;;;;;;5097940;28;20476;-60
2021/04/02 01:05:32;;;;;;;1.50;0.30;;;9.50;93.40;;;;;;5084113;28;20184;-60
2021/04/02 01:08:02;;;;;;;1.40;0.20;;;9.60;93.00;;;;;;5094605;28;20440;-60
2021/04/02 01:10:29;;;;;;;1.90;0.90;;;9.50;93.70;;;;;;5091062;28;20442;-60
2021/04/02 01:12:59;;;;;;;1.70;0.43;;;9.50;93.90;;;;;;5096246;28;20468;-60
2021/04/02 01:15:51;;;;;;;1.50;0.30;;;9.40;94.20;;;;;;5096036;28;20466;-65
2021/04/02 01:18:25;;;;;;;2.43;1.17;;;9.40;94.60;;;;;;5092966;28;20476;-60
2021/04/02 01:20:55;;;;;;;1.90;0.77;;;9.40;95.10;;;;;;5099013;28;21011;-60
2021/04/02 01:23:27;;;;;;;1.70;0.70;;;9.50;95.10;;;;;;5083192;28;20467;-60
2021/04/02 01:26:30;;;;;;;2.07;1.03;;;9.40;95.60;;;;;;5099479;28;20469;-60
2021/04/02 01:29:16;;;;;;;1.50;0.20;;;9.30;95.90;;;;;;5088051;28;20421;-60
2021/04/02 01:31:47;;;;;;;1.93;0.60;;;9.40;96.20;;;;;;5087820;28;20468;-61
2021/04/02 01:34:13;;;;;;;1.70;0.60;;;9.30;96.50;;;;;;5089056;28;20430;-61
2021/04/02 01:36:42;;;;;;;1.57;0.30;;;9.10;97.40;;;;;;5100356;28;20430;-61
2021/04/02 01:39:10;;;;;;;2.37;1.37;;;9.20;97.70;;;;;;5102034;28;20183;-61
2021/04/02 01:41:40;;;;;;;1.97;0.93;;;9.10;98.10;;;;;;5104549;28;20461;-60
2021/04/02 01:44:07;;;;;;;1.60;0.50;;;9.10;98.90;;;;;;5099794;28;20427;-61
2021/04/02 01:46:34;;;;;;;1.47;0.20;;;9.10;99.00;;;;;;5091656;28;20570;-62
2021/04/02 01:49:03;;;;;;;2.40;1.23;;;9.10;99.20;;;;;;5100512;28;20441;-60
2021/04/02 01:51:31;;;;;;;1.63;0.50;;;9.00;99.60;;;;;;5099149;28;20481;-60
2021/04/02 01:53:59;;;;;;;2.17;0.80;;;9.00;99.70;;;;;;5085987;28;20526;-60
2021/04/02 01:56:25;;;;;;;1.80;0.57;;;9.10;99.40;;;;;;5098212;28;20454;-60
2021/04/02 01:58:52;;;;;;;1.70;0.63;;;8.90;99.90;;;;;;5099946;28;20486;-61
2021/04/02 02:01:20;;;;;;;1.47;0.20;;;8.90;99.90;;;;;;5103640;28;20425;-61
2021/04/02 02:03:53;;;;;;;1.43;0.20;;;9.00;99.90;;;;;;5118351;28;20485;-61
2021/04/02 02:06:21;;;;;;;1.43;0.20;;;9.10;99.90;;;;;;5113706;28;20975;-63
2021/04/02 02:08:48;;;;;;;1.40;0.20;;;9.00;99.90;;;;;;5103238;28;20433;-62
2021/04/02 02:11:16;;;;;;;1.43;0.20;;;8.90;99.90;;;;;;5115811;28;20444;-61
2021/04/02 02:13:46;;;;;;;1.97;0.97;;;8.90;99.90;;;;;;5109496;28;20434;-60
2021/04/02 02:16:13;;;;;;;1.40;0.20;;;8.80;99.90;;;;;;5112680;28;20500;-60
2021/04/02 02:18:41;;;;;;;1.50;0.20;;;8.80;99.90;;;;;;5102399;28;20478;-59
2021/04/02 02:21:13;;;;;;;1.47;0.20;;;8.70;99.90;;;;;;5098138;28;20935;-59
2021/04/02 02:23:42;;;;;;;1.40;0.30;;;8.90;99.90;;;;;;5085849;28;20822;-60
2021/04/02 02:26:09;;;;;;;1.40;0.20;;;8.90;99.90;;;;;;5099629;28;20457;-62
2021/04/02 02:28:34;;;;;;;17.83;1.67;;;8.70;99.90;;;;;;5119275;28;20987;-60
2021/04/02 02:31:00;;;;;;;1.40;0.20;;;8.70;99.90;;;;;;5091133;28;20456;-60
2021/04/02 02:33:26;;;;;;;1.40;0.20;;;8.80;99.90;;;;;;5099443;28;20541;-62
2021/04/02 02:35:53;;;;;;;1.40;0.20;;;8.80;99.90;;;;;;5098851;28;20271;-60
2021/04/02 02:38:20;;;;;;;1.50;0.30;;;8.80;99.90;;;;;;5095741;28;20441;-60
2021/04/02 02:40:46;;;;;;;1.50;0.20;;;8.80;99.90;;;;;;5101616;28;21012;-60
2021/04/02 02:43:14;;;;;;;1.77;0.80;;;8.80;99.90;;;;;;5073218;28;20556;-60
2021/04/02 02:45:40;;;;;;;2.23;0.50;;;8.80;99.90;;;;;;5099449;28;21108;-59
2021/04/02 02:48:06;;;;;;;1.60;0.53;;;8.80;99.90;;;;;;5104202;28;20464;-61
2021/04/02 02:50:34;;;;;;;1.47;0.27;;;8.70;99.90;;;;;;5097200;28;20270;-60
2021/04/02 02:53:02;;;;;;;1.47;0.20;;;8.70;99.90;;;;;;5100050;28;20504;-60
2021/04/02 02:55:31;;;;;;;1.50;0.50;;;8.70;99.90;;;;;;5090445;28;20425;-60
2021/04/02 02:57:58;;;;;;;1.80;0.63;;;8.60;99.90;;;;;;5089585;28;20438;-61
2021/04/02 03:00:27;;;;;;;1.50;0.30;;;8.50;99.90;;;;;;5099067;28;20536;-61
2021/04/02 03:02:57;;;;;;;1.57;0.37;;;8.40;99.90;;;;;;5074584;28;20476;-61
2021/04/02 03:05:26;;;;;;;1.50;0.20;;;8.60;99.90;;;;;;5093108;28;21099;-60
2021/04/02 03:08:01;;;;;;;1.40;0.20;;;8.60;99.90;;;;;;5100581;28;20442;-60
2021/04/02 03:10:29;;;;;;;3.30;1.17;;;8.70;99.90;;;;;;5099009;28;20452;-60
2021/04/02 03:12:56;;;;;;;3.10;1.53;;;8.80;99.90;;;;;;5068976;28;20551;-60
2021/04/02 03:15:23;;;;;;;1.40;0.20;;;8.80;99.90;;;;;;5092796;28;20436;-60
2021/04/02 03:17:55;;;;;;;1.60;0.53;;;8.70;99.90;;;;;;5098513;28;20757;-60
2021/04/02 03:20:23;;;;;;;1.50;0.43;;;8.60;99.90;;;;;;5091565;28;20932;-60
2021/04/02 03:22:51;;;;;;;1.47;0.20;;;8.40;99.90;;;;;;5096798;28;20208;-61
2021/04/02 03:25:23;;;;;;;1.58;0.40;;;8.20;99.90;;;;;;5098851;28;20433;-61
2021/04/02 03:27:50;;;;;;;1.50;0.20;;;8.10;99.90;;;;;;5076932;28;20578;-61
2021/04/02 03:30:17;;;;;;;3.75;2.70;;;8.00;99.90;;;;;;5100262;28;20474;-61
2021/04/02 03:32:47;;;;;;;1.80;0.93;;;8.00;99.90;;;;;;5096384;28;20214;-61
2021/04/02 03:35:14;;;;;;;1.60;0.70;;;8.00;99.90;;;;;;5091422;28;20179;-61
2021/04/02 03:37:42;;;;;;;1.42;0.30;;;8.20;99.90;;;;;;5101808;28;20196;-61
2021/04/02 03:40:13;;;;;;;3.55;1.83;;;8.10;99.90;;;;;;5095785;28;20185;-61
2021/04/02 03:42:40;;;;;;;1.50;0.30;;;8.20;99.90;;;;;;5089002;28;20204;-61
2021/04/02 03:45:09;;;;;;;1.50;0.20;;;8.20;99.90;;;;;;5097670;28;20272;-61
2021/04/02 03:47:36;;;;;;;1.48;0.20;;;8.20;99.90;;;;;;5086931;28;20689;-61
2021/04/02 03:50:07;;;;;;;15.45;1.85;;;8.20;99.90;;;;;;5088749;28;20188;-60
2021/04/02 03:52:37;;;;;;;1.50;0.20;;;8.00;99.90;;;;;;5091063;28;20629;-61
2021/04/02 03:55:03;;;;;;;1.48;0.20;;;8.00;99.90;;;;;;5093393;28;20519;-61
2021/04/02 03:57:32;;;;;;;1.60;0.55;;;8.20;99.90;;;;;;5088798;28;20191;-60
2021/04/02 04:00:01;;;;;;;1.75;0.75;;;8.10;99.90;;;;;;5095719;28;20183;-60
2021/04/02 04:02:28;;;;;;;1.95;1.10;;;8.00;99.90;;;;;;5086492;28;20713;-60
2021/04/02 04:04:55;;;;;;;1.45;0.20;;;7.90;99.90;;;;;;5091209;28;20187;-61
2021/04/02 04:07:23;;;;;;;1.50;0.20;;;7.80;99.90;;;;;;5089189;28;20204;-61
2021/04/02 04:09:51;;;;;;;1.90;0.45;;;7.80;99.90;;;;;;5091152;28;20635;-60
2021/04/02 04:12:20;;;;;;;2.35;1.02;;;7.70;99.90;;;;;;5096760;28;20216;-60
2021/04/02 04:14:49;;;;;;;3.55;2.70;;;7.70;99.90;;;;;;5101961;28;20199;-61
2021/04/02 04:17:16;;;;;;;1.80;0.40;;;7.70;99.90;;;;;;5090803;28;20191;-61
2021/04/02 04:19:45;;;;;;;1.50;0.20;;;7.70;99.90;;;;;;5093835;28;20766;-61
2021/04/02 04:22:11;;;;;;;1.50;0.20;;;7.60;99.90;;;;;;5086224;28;20252;-60
2021/04/02 04:24:37;;;;;;;1.50;0.20;;;7.70;99.90;;;;;;5093977;28;20204;-61
2021/04/02 04:27:06;;;;;;;2.88;1.58;;;7.80;99.90;;;;;;5094549;28;20192;-61
2021/04/02 04:29:40;;;;;;;1.50;0.20;;;7.60;99.90;;;;;;5110475;28;20185;-61
2021/04/02 04:32:08;;;;;;;1.50;0.20;;;7.60;99.90;;;;;;5099495;28;20207;-61
2021/04/02 04:34:34;;;;;;;1.55;0.43;;;7.70;99.90;;;;;;5102642;28;20187;-61
2021/04/02 04:37:01;;;;;;;1.50;0.30;;;7.80;99.90;;;;;;5095978;28;20187;-60
2021/04/02 04:39:28;;;;;;;1.42;0.20;;;7.80;99.90;;;;;;5083221;28;20187;-61
2021/04/02 04:41:56;;;;;;;1.50;0.20;;;7.80;99.90;;;;;;5098740;28;20299;-61
2021/04/02 04:44:23;;;;;;;1.50;0.30;;;7.80;99.90;;;;;;5093762;28;20191;-60
2021/04/02 04:46:49;;;;;;;1.50;0.20;;;7.80;99.90;;;;;;5083733;28;20196;-61
2021/04/02 04:49:14;;;;;;;1.50;0.30;;;7.80;99.90;;;;;;5097202;28;20180;-61
2021/04/02 04:51:41;;;;;;;1.40;0.20;;;7.70;99.90;;;;;;5087976;28;20491;-61
2021/04/02 04:54:08;;;;;;;4.60;0.77;;;7.80;99.90;;;;;;5089315;28;20199;-61
2021/04/02 04:56:36;;;;;;;1.50;0.20;;;7.80;99.90;;;;;;5094099;28;20183;-60
2021/04/02 04:59:05;;;;;;;1.45;0.20;;;7.70;99.90;;;;;;5093458;28;20183;-60
2021/04/02 05:01:39;;;;;;;1.50;0.20;;;7.80;99.90;;;;;;5071104;28;504469;-61
2021/04/02 05:04:06;;;;;;;1.63;0.40;;;7.90;99.90;;;;;;5097070;28;20191;-61
2021/04/02 05:06:33;;;;;;;1.58;0.47;;;8.00;99.90;;;;;;5083474;28;20195;-61
2021/04/02 05:09:01;;;;;;;1.45;0.30;;;8.00;99.90;;;;;;5089467;28;20188;-60
2021/04/02 05:11:29;;;;;;;1.50;0.20;;;8.00;99.90;;;;;;5090995;28;20666;-60
2021/04/02 05:13:56;;;;;;;1.50;0.20;;;8.10;99.90;;;;;;5087996;28;20208;-61
2021/04/02 05:16:23;;;;;;;2.97;0.98;;;8.10;99.90;;;;;;5094000;28;20177;-61
2021/04/02 05:18:51;;;;;;;1.90;0.80;;;8.10;99.90;;;;;;5097731;28;20673;-60
2021/04/02 05:21:17;;;;;;;1.40;0.20;;;8.10;99.90;;;;;;5084741;28;20429;-61
2021/04/02 05:23:43;;;;;;;1.40;0.20;;;8.20;99.90;;;;;;5088798;28;20516;-60
2021/04/02 05:26:13;;;;;;;1.47;0.20;;;8.20;99.90;;;;;;5099489;28;20168;-61
2021/04/02 05:28:39;;;;;;;1.42;0.20;;;8.30;99.90;;;;;;5084061;28;20179;-60
2021/04/02 05:31:05;;;;;;;2.33;1.03;;;8.30;99.90;;;;;;5095359;28;20259;-61
2021/04/02 05:33:31;;;;;;;1.70;0.40;;;8.20;99.90;;;;;;5101909;28;20211;-60
2021/04/02 05:35:57;;;;;;;1.47;0.23;;;8.20;99.90;;;;;;5092399;28;20430;-61
2021/04/02 05:38:23;;;;;;;1.40;0.20;;;8.30;99.90;;;;;;5104554;28;20198;-61
2021/04/02 05:40:48;;;;;;;2.83;1.17;;;8.30;99.90;;;;;;5097483;28;20183;-61
2021/04/02 05:43:36;;;;;;;1.50;0.40;;;8.30;99.90;;;;;;5095241;28;20476;-61
2021/04/02 05:46:02;;;;;;;2.80;1.25;;;8.30;99.90;;;;;;5105204;28;20237;-61
2021/04/02 05:48:31;;;;;;;1.50;0.37;;;8.40;99.90;;;;;;5107647;28;20179;-61
2021/04/02 05:50:57;;;;;;;1.40;0.20;;;8.30;99.90;;;;;;5099297;28;20478;-60
2021/04/02 05:53:25;;;;;;;1.50;0.30;;;8.30;99.90;;;;;;5098998;28;20820;-65
2021/04/02 05:55:51;;;;;;;1.50;0.20;;;8.30;99.90;;;;;;5104450;28;20441;-60
2021/04/02 05:58:18;;;;;;;1.40;0.20;;;8.40;99.90;;;;;;5087873;28;20185;-61
2021/04/02 06:00:43;;;;;;;6.13;4.43;;;8.60;99.90;;;;;;5104118;28;20449;-60
2021/04/02 06:03:09;;;;;;;3.17;1.37;;;8.60;99.90;;;;;;5100774;28;20918;-60
2021/04/02 06:05:35;;;;;;;1.50;0.20;;;8.60;99.90;;;;;;5088472;28;20662;-61
2021/04/02 06:08:02;;;;;;;1.77;0.60;;;8.70;99.90;;;;;;5105038;28;20175;-60
2021/04/02 06:10:28;;;;;;;20.02;2.40;;;8.60;99.90;;;;;;5092174;28;20495;-61
2021/04/02 06:12:58;;;;;;;1.50;0.50;;;8.50;99.90;;;;;;5095980;28;20212;-61
2021/04/02 06:15:23;;;;;;;1.60;0.40;;;8.40;99.90;;;;;;5094077;28;20187;-61
2021/04/02 06:18:08;;;;;;;1.70;0.50;;;8.50;99.90;;;;;;5093634;28;20437;-60
2021/04/02 06:20:37;;;;;;;1.40;0.20;;;8.50;99.90;;;;;;5091410;28;20216;-60
2021/04/02 06:23:08;;;;;;;2.88;0.85;;;8.40;99.90;;;;;;5098702;28;20470;-61
2021/04/02 06:25:34;;;;;;;1.40;0.20;;;8.40;99.90;;;;;;5090423;28;20208;-61
2021/04/02 06:28:00;;;;;;;2.00;0.87;;;8.50;99.90;;;;;;5096465;28;20462;-61
2021/04/02 06:30:29;;;;;;;1.40;0.20;;;8.70;99.90;;;;;;5075391;28;20831;-60
2021/04/02 06:32:55;;;;;;;1.40;0.20;;;8.70;99.90;;;;;;5086111;28;20215;-61
2021/04/02 06:35:24;;;;;;;1.60;0.57;;;8.70;99.90;;;;;;5095688;28;20496;-61
2021/04/02 06:37:54;;;;;;;1.50;0.30;;;8.80;99.90;;;;;;5102930;28;20424;-61
2021/04/02 06:40:20;;;;;;;1.40;0.20;;;8.80;99.90;;;;;;5093142;28;20437;-61
2021/04/02 06:42:46;;;;;;;3.83;1.90;;;8.80;99.90;;;;;;5094170;28;20477;-60
2021/04/02 06:45:13;;;;;;;1.40;0.20;;;8.80;99.90;;;;;;5095268;28;20497;-61
2021/04/02 06:47:43;;;;;;;1.40;0.30;;;8.90;99.90;;;;;;5085121;28;20447;-60
2021/04/02 06:50:20;;;;;;;3.50;1.87;;;9.00;99.90;;;;;;5093543;28;21035;-61
2021/04/02 06:52:51;;;;;;;1.43;0.30;;;9.00;99.90;;;;;;5110789;28;20441;-61
2021/04/02 06:55:17;;;;;;;1.47;0.20;;;9.20;99.60;;;;;;5080549;28;20989;-61
2021/04/02 06:57:50;;;;;;;1.43;0.20;;;9.30;99.20;;;;;;5101237;28;20462;-61
2021/04/02 07:00:21;;;;;;;1.70;0.73;;;9.30;98.80;;;;;;5107484;28;20434;-61
2021/04/02 07:02:48;;;;;;;1.40;0.20;;;9.30;99.10;;;;;;5106997;28;20529;-61
2021/04/02 07:05:26;;;;;;;3.00;1.53;;;9.40;99.50;;;;;;5105511;28;20429;-61
2021/04/02 07:07:55;;;;;;;3.77;3.13;;;9.40;99.40;;;;;;5121708;28;20425;-61
2021/04/02 07:10:22;;;;;;;1.80;0.50;;;9.40;98.80;;;;;;5102323;28;20429;-61
2021/04/02 07:12:51;;;;;;;1.57;0.37;;;9.50;99.00;;;;;;5096907;28;20443;-61
2021/04/02 07:15:18;;;;;;;1.40;0.20;;;9.40;98.90;;;;;;5100830;28;20438;-61
2021/04/02 07:17:47;;;;;;;1.50;0.30;;;9.50;98.60;;;;;;5092014;28;20433;-61
2021/04/02 07:20:14;;;;;;;1.60;0.40;;;9.50;98.60;;;;;;5096656;28;20506;-61
2021/04/02 07:22:41;;;;;;;1.50;0.20;;;9.50;98.50;;;;;;5100392;28;20555;-61
2021/04/02 07:25:07;;;;;;;1.43;0.20;;;9.50;98.50;;;;;;5092737;28;20437;-61
2021/04/02 07:27:34;;;;;;;1.40;0.20;;;9.50;98.30;;;;;;5090106;28;20445;-61
2021/04/02 07:30:01;;;;;;;1.50;0.30;;;9.60;97.90;;;;;;5092793;28;20484;-61
2021/04/02 07:32:27;;;;;;;2.80;2.07;;;9.70;98.10;;;;;;5086329;28;20462;-60
2021/04/02 07:34:53;;;;;;;1.67;0.40;;;9.60;97.90;;;;;;5094460;28;20442;-59
2021/04/02 07:37:18;;;;;;;1.40;0.20;;;9.70;98.00;;;;;;5087931;28;21079;-60
2021/04/02 07:39:52;;;;;;;2.43;1.50;;;9.70;97.50;;;;;;5086785;28;20674;-64
2021/04/02 07:42:20;;;;;;;2.60;1.73;;;9.60;97.80;;;;;;5090263;28;20251;-61
2021/04/02 07:44:49;;;;;;;1.43;0.20;;;9.60;97.80;;;;;;5086967;28;21001;-62
2021/04/02 07:47:14;;;;;;;1.50;0.30;;;9.60;97.70;;;;;;5089664;28;20435;-60
2021/04/02 07:49:47;;;;;;;1.63;0.80;;;9.60;97.50;;;;;;5091979;28;20441;-60
2021/04/02 07:52:13;;;;;;;1.70;0.83;;;9.70;97.60;;;;;;5084812;28;20216;-60
2021/04/02 07:54:41;;;;;;;1.50;0.33;;;9.80;97.20;;;;;;5071062;28;20446;-59
2021/04/02 07:57:14;;;;;;;1.50;0.20;;;9.80;96.70;;;;;;5089529;28;20673;-63
2021/04/02 07:59:40;;;;;;;1.43;0.20;;;9.80;97.10;;;;;;5094036;28;21314;-61
2021/04/02 08:02:08;;;;;;;1.43;0.20;;;9.90;96.60;;;;;;5097828;28;20465;-60
2021/04/02 08:04:51;;;;;;;1.60;0.30;;;9.90;96.20;;;;;;5099603;28;20188;-59
2021/04/02 08:07:18;;;;;;;1.60;0.47;;;9.80;96.20;;;;;;5089781;28;20445;-60
2021/04/02 08:09:50;;;;;;;1.50;0.30;;;9.70;96.40;;;;;;5096401;28;20451;-60
2021/04/02 08:12:17;;;;;;;1.90;0.80;;;9.70;96.50;;;;;;5118509;28;20450;-60
2021/04/02 08:14:48;;;;;;;1.60;0.40;;;9.70;96.60;;;;;;5113633;28;20464;-62
2021/04/02 08:17:19;;;;;;;2.37;0.97;;;9.90;96.60;;;;;;5119682;28;20483;-65
2021/04/02 08:19:46;;;;;;;2.13;1.07;;;9.90;96.60;;;;;;5111665;28;20460;-61
2021/04/02 08:22:17;;;;;;;2.73;1.33;;;10.00;95.60;;;;;;5108973;28;20488;-61
2021/04/02 08:24:45;;;;;;;1.77;0.50;;;10.00;95.40;;;;;;5102937;28;20437;-61
2021/04/02 08:27:13;;;;;;;1.40;0.20;;;10.00;95.90;;;;;;5094786;28;20455;-61
2021/04/02 08:29:42;;;;;;;1.40;0.20;;;10.00;95.50;;;;;;5095290;28;20430;-60
2021/04/02 08:32:10;;;;;;;1.50;0.20;;;10.00;95.60;;;;;;5091977;28;20838;-60
2021/04/02 08:34:37;;;;;;;1.90;0.83;;;10.00;95.50;;;;;;5095715;28;20927;-61
2021/04/02 08:37:07;;;;;;;3.50;1.97;;;10.00;95.70;;;;;;5092354;28;20441;-61
2021/04/02 08:39:33;;;;;;;2.10;1.10;;;9.90;96.50;;;;;;5097261;28;20433;-61
2021/04/02 08:42:04;;;;;;;1.40;0.20;;;9.80;96.50;;;;;;5109851;28;20478;-60
2021/04/02 08:44:32;;;;;;;2.53;1.13;;;9.80;96.40;;;;;;5106526;28;20461;-62
2021/04/02 08:47:01;;;;;;;1.43;0.20;;;9.80;96.40;;;;;;5117151;28;20434;-61
2021/04/02 08:49:27;;;;;;;1.80;0.40;;;10.00;95.60;;;;;;5115485;28;20521;-59
2021/04/02 08:51:53;;;;;;;1.60;0.50;;;10.00;95.10;;;;;;5099481;28;21011;-60
2021/04/02 08:54:21;;;;;;;2.60;0.93;;;10.10;94.80;;;;;;5097705;28;20434;-61
2021/04/02 08:56:50;;;;;;;1.50;0.30;;;10.20;94.70;;;;;;5085333;28;20524;-60
2021/04/02 08:59:16;;;;;;;2.10;1.17;;;10.10;95.20;;;;;;5079829;28;20494;-60
2021/04/02 09:01:46;;;;;;;2.10;0.80;;;10.00;95.50;;;;;;5102903;28;20437;-60
2021/04/02 09:04:13;;;;;;;1.50;0.40;;;9.90;96.00;;;;;;5103823;28;20463;-60
2021/04/02 09:06:40;;;;;;;1.73;0.63;;;10.00;95.40;;;;;;5095066;28;20438;-60
2021/04/02 09:09:14;;;;;;;3.83;1.50;;;10.00;95.80;;;;;;5107535;28;20440;-62
2021/04/02 09:11:40;;;;;;;2.10;0.77;;;10.00;95.90;;;;;;5098723;28;20894;-61
2021/04/02 09:14:10;;;;;;;1.90;0.60;;;10.00;96.10;;;;;;5094633;28;20469;-60
2021/04/02 09:16:42;;;;;;;1.50;0.30;;;10.00;96.40;;;;;;5094611;28;20527;-61
2021/04/02 09:19:08;;;;;;;1.60;0.43;;;10.00;95.90;;;;;;5102204;28;20925;-61
2021/04/02 09:21:34;;;;;;;1.70;0.70;;;10.00;96.00;;;;;;5094569;28;20435;-61
2021/04/02 09:24:00;;;;;;;1.70;0.60;;;10.10;95.70;;;;;;5097505;28;20518;-60
2021/04/02 09:26:27;;;;;;;3.67;2.10;;;10.00;95.60;;;;;;5099678;28;20432;-60
2021/04/02 09:28:57;;;;;;;1.90;0.80;;;10.10;95.50;;;;;;5099028;28;20435;-61
2021/04/02 09:31:25;;;;;;;1.50;0.30;;;10.20;95.50;;;;;;5098781;28;20496;-61
2021/04/02 09:33:53;;;;;;;2.90;1.03;;;10.10;95.90;;;;;;5094389;28;20468;-60
2021/04/02 09:36:19;;;;;;;1.50;0.20;;;10.10;95.80;;;;;;5092890;28;20805;-59
2021/04/02 09:38:46;;;;;;;1.80;0.60;;;10.20;95.50;;;;;;5094781;28;20449;-60
2021/04/02 09:41:12;;;;;;;1.47;0.20;;;10.20;95.50;;;;;;5092367;28;20429;-60
2021/04/02 09:43:52;;;;;;;1.47;0.20;;;10.10;95.50;;;;;;5091111;28;20466;-60
2021/04/02 09:46:28;;;;;;;1.43;0.20;;;10.20;95.60;;;;;;5107103;28;20529;-60
2021/04/02 09:49:08;;;;;;;1.40;0.20;;;10.30;95.70;;;;;;5090620;28;20428;-60
2021/04/02 09:51:36;;;;;;;2.33;1.27;;;10.20;95.90;;;;;;5086418;28;20865;-60
2021/04/02 09:54:02;;;;;;;1.50;0.30;;;10.20;95.60;;;;;;5104180;28;20441;-61
2021/04/02 09:56:28;;;;;;;1.50;0.30;;;10.30;95.70;;;;;;5091291;28;20440;-60
2021/04/02 09:58:54;;;;;;;2.27;1.40;;;10.50;95.20;;;;;;5101699;28;20942;-61
2021/04/02 10:01:20;;;;;;;1.93;0.83;;;10.50;95.10;;;;;;5097282;28;20461;-61
2021/04/02 10:03:46;;;;;;;1.80;0.60;;;10.40;95.20;;;;;;5098607;28;20461;-63
2021/04/02 10:06:12;;;;;;;2.10;1.20;;;10.40;95.60;;;;;;5101096;28;20434;-61
2021/04/02 10:08:37;;;;;;;1.53;0.50;;;10.30;95.20;;;;;;5102803;28;20521;-61
2021/04/02 10:11:03;;;;;;;1.50;0.30;;;10.30;95.30;;;;;;5096464;28;20643;-60
2021/04/02 10:13:29;;;;;;;1.47;0.30;;;10.30;95.30;;;;;;5096018;28;20212;-60
2021/04/02 10:15:54;;;;;;;1.47;0.20;;;10.30;95.60;;;;;;5102405;28;20278;-61
2021/04/02 10:18:21;;;;;;;1.43;0.20;;;10.20;95.40;;;;;;5091265;28;20216;-60
2021/04/02 10:20:47;;;;;;;1.40;0.20;;;10.30;95.30;;;;;;5104230;28;20180;-60
2021/04/02 10:23:12;;;;;;;1.50;0.20;;;10.30;95.50;;;;;;5109593;22;20468;-57
2021/04/02 10:25:38;;;;;;;1.43;0.20;;;10.40;95.50;;;;;;5088356;28;20184;-56
2021/04/02 10:28:04;;;;;;;1.47;0.20;;;10.50;95.50;;;;;;5093049;28;20175;-57
2021/04/02 10:30:30;;;;;;;1.60;0.40;;;10.60;94.90;;;;;;5085662;28;20324;-56
2021/04/02 10:32:56;;;;;;;1.67;0.40;;;10.70;95.20;;;;;;5091326;28;20532;-56
2021/04/02 10:35:21;;;;;;;1.87;0.63;;;10.60;95.00;;;;;;5073850;28;20189;-56
2021/04/02 10:37:47;;;;;;;3.13;1.30;;;10.70;94.70;;;;;;5069647;28;20196;-56
2021/04/02 10:40:14;;;;;;;1.40;0.20;;;10.70;94.10;;;;;;5068522;28;20201;-57
2021/04/02 10:42:39;;;;;;;1.50;0.20;;;10.70;94.00;;;;;;5073049;28;20224;-56
2021/04/02 10:45:06;;;;;;;1.60;0.50;;;10.70;94.60;;;;;;5067003;28;20829;-57
2021/04/02 10:47:31;;;;;;;2.33;1.03;;;10.70;94.50;;;;;;5063672;28;20219;-56
2021/04/02 10:49:57;;;;;;;2.13;1.07;;;10.90;94.40;;;;;;5067528;28;20419;-57
2021/04/02 10:52:23;;;;;;;1.50;0.30;;;10.70;94.20;;;;;;5066146;28;20216;-57
2021/04/02 10:54:49;;;;;;;1.43;0.20;;;10.60;94.10;;;;;;5070714;28;20354;-56
2021/04/02 10:57:15;;;;;;;2.03;0.87;;;10.60;93.90;;;;;;5050557;28;20189;-57
2021/04/02 10:59:42;;;;;;;6.23;1.43;;;10.70;94.10;;;;;;5062447;28;20436;-57
2021/04/02 11:02:07;;;;;;;1.90;0.67;;;10.70;94.00;;;;;;5062086;28;20972;-57
2021/04/02 11:04:33;;;;;;;2.17;0.47;;;10.60;94.10;;;;;;5064732;28;20476;-56
2021/04/02 11:06:58;;;;;;;1.43;0.20;;;10.60;94.10;;;;;;5049260;28;20189;-56
2021/04/02 11:09:24;;;;;;;2.00;0.70;;;10.60;94.20;;;;;;5068852;28;20230;-57
2021/04/02 11:11:49;;;;;;;1.40;0.20;;;10.70;93.70;;;;;;5064282;28;20181;-57
2021/04/02 11:14:15;;;;;;;1.43;0.27;;;10.80;93.70;;;;;;5065539;28;20254;-57
2021/04/02 11:16:40;;;;;;;3.70;2.60;;;10.90;93.10;;;;;;5068017;28;20227;-57
2021/04/02 11:19:06;;;;;;;3.40;0.93;;;11.00;93.00;;;;;;5061380;28;20188;-57
2021/04/02 11:21:32;;;;;;;2.20;0.73;;;11.00;93.60;;;;;;5064414;28;20197;-56
2021/04/02 11:23:57;;;;;;;1.40;0.20;;;11.10;92.80;;;;;;5064140;28;20204;-57
2021/04/02 11:26:24;;;;;;;1.70;0.60;;;11.10;92.30;;;;;;5068127;28;20767;-55
2021/04/02 11:28:50;;;;;;;3.73;2.53;;;11.20;92.20;;;;;;5070225;28;20310;-57
2021/04/02 11:31:16;;;;;;;1.50;0.20;;;11.20;92.40;;;;;;5071983;28;20446;-56
2021/04/02 11:33:41;;;;;;;1.80;0.67;;;11.20;92.10;;;;;;5066904;28;20534;-56
2021/04/02 11:36:07;;;;;;;1.47;0.20;;;11.30;92.40;;;;;;5070898;28;20195;-55
2021/04/02 11:38:34;;;;;;;3.27;1.97;;;11.40;92.80;;;;;;5070869;28;20618;-56
2021/04/02 11:40:59;;;;;;;1.90;0.73;;;11.50;91.80;;;;;;5070094;28;20188;-57
2021/04/02 11:43:25;;;;;;;2.17;0.60;;;11.60;91.90;;;;;;5071236;28;20543;-56
2021/04/02 11:45:50;;;;;;;2.23;0.93;;;11.70;91.40;;;;;;5070348;28;20181;-56
2021/04/02 11:48:16;;;;;;;1.40;0.20;;;11.60;91.00;;;;;;5067971;28;20199;-56
2021/04/02 11:50:41;;;;;;;1.40;0.20;;;11.80;90.80;;;;;;5068029;28;20181;-57
2021/04/02 11:53:07;;;;;;;1.40;0.20;;;11.70;90.90;;;;;;5066363;28;20648;-56
2021/04/02 11:55:33;;;;;;;1.50;0.20;;;11.80;90.60;;;;;;5068072;28;20257;-56
2021/04/02 11:57:58;;;;;;;1.40;0.20;;;11.90;90.30;;;;;;5068520;28;20272;-56
2021/04/02 12:00:24;;;;;;;2.20;1.00;;;11.90;90.00;;;;;;5069043;28;20551;-56
2021/04/02 12:02:50;;;;;;;1.70;0.47;;;11.90;90.00;;;;;;5070476;28;20201;-56
2021/04/02 12:05:17;;;;;;;1.50;0.47;;;12.00;89.50;;;;;;5071835;28;20456;-56
2021/04/02 12:07:42;;;;;;;1.80;0.40;;;12.10;88.30;;;;;;5074324;28;20250;-56
2021/04/02 12:10:09;;;;;;;1.40;0.20;;;12.10;87.80;;;;;;5068847;28;20450;-57
2021/04/02 12:12:35;;;;;;;1.50;0.30;;;12.00;88.50;;;;;;5069652;28;20245;-57
2021/04/02 12:15:02;;;;;;;1.50;0.20;;;11.90;87.70;;;;;;5068942;28;20934;-57
2021/04/02 12:17:27;;;;;;;2.77;1.27;;;11.90;88.60;;;;;;5066068;28;20440;-57
2021/04/02 12:19:53;;;;;;;1.40;0.20;;;11.90;88.90;;;;;;5065997;28;20461;-57
2021/04/02 12:22:18;;;;;;;2.43;1.03;;;11.90;87.10;;;;;;5069353;28;20291;-56
2021/04/02 12:24:44;;;;;;;1.47;0.20;;;11.80;88.10;;;;;;5068811;28;20208;-57
2021/04/02 12:27:09;;;;;;;1.40;0.20;;;11.70;87.10;;;;;;5070837;28;20181;-57
2021/04/02 12:29:35;;;;;;;1.50;0.37;;;11.70;88.40;;;;;;5067799;28;20188;-57
2021/04/02 12:32:02;;;;;;;1.40;0.20;;;11.60;88.00;;;;;;5064674;28;20176;-57
2021/04/02 12:34:27;;;;;;;1.47;0.20;;;11.70;87.60;;;;;;5067519;28;20235;-57
2021/04/02 12:36:53;;;;;;;2.30;2.10;;;12.00;87.30;;;;;;5067258;28;20454;-56
2021/04/02 12:39:18;;;;;;;1.43;0.20;;;12.00;86.80;;;;;;5067001;28;20279;-54
2021/04/02 12:41:44;;;;;;;1.50;0.30;;;11.90;88.60;;;;;;5064102;28;20271;-55
2021/04/02 12:44:09;;;;;;;1.57;0.43;;;11.80;88.50;;;;;;5066858;28;20273;-56
2021/04/02 12:46:35;;;;;;;1.40;0.20;;;12.00;88.60;;;;;;5070514;28;20647;-55
2021/04/02 12:49:00;;;;;;;2.00;1.07;;;12.00;87.40;;;;;;5066583;28;20185;-55
2021/04/02 12:51:26;;;;;;;2.33;0.50;;;12.00;85.70;;;;;;5068868;28;20315;-56
2021/04/02 12:53:51;;;;;;;1.60;0.37;;;11.90;85.70;;;;;;5053837;28;20192;-56
2021/04/02 12:56:17;;;;;;;1.90;0.80;;;12.00;85.10;;;;;;5068253;28;20192;-56